This is the latest recevied weather packets stored in our database for station/object YG1CIC-13. If no packets are shown the sender has not sent any weather packets the latest 10 day(s).
| Time | Temp. | Humidity | Pressure | Rain* | Wind** | Luminosity | Snow |
|---|---|---|---|---|---|---|---|
| 1777624111 | 32.22° C | 71% | - | 0 mm | - | - | - |
| 1777623510 | 32.78° C | 70% | - | 0 mm | - | - | - |
| 1777622910 | 32.78° C | 67% | - | 0 mm | - | - | - |
| 1777622309 | 32.78° C | 69% | - | 0 mm | - | - | - |
| 1777621708 | 33.33° C | 70% | - | 0 mm | - | - | - |
| 1777621108 | 35° C | 64% | - | 0 mm | - | - | - |
| 1777620507 | 33.89° C | 65% | - | 0 mm | - | - | - |
| 1777619907 | 35° C | 62% | - | 0 mm | - | - | - |
| 1777619306 | 35.56° C | 60% | - | 0 mm | - | - | - |
| 1777618705 | 36.11° C | 59% | - | 0 mm | - | - | - |
| 1777618105 | 35.56° C | 62% | - | 0 mm | - | - | - |
| 1777617504 | 35° C | 64% | - | 0 mm | - | - | - |
| 1777616904 | 35° C | 65% | - | 0 mm | - | - | - |
| 1777616303 | 35.56° C | 65% | - | 0 mm | - | - | - |
| 1777615703 | 36.67° C | 62% | - | 0 mm | - | - | - |
| 1777615109 | 35.56° C | 62% | - | 0 mm | - | - | - |
| 1777614501 | 36.67° C | 60% | - | 0 mm | - | - | - |
| 1777613901 | 36.11° C | 62% | - | 0 mm | - | - | - |
| 1777613300 | 36.67° C | 59% | - | 0 mm | - | - | - |
| 1777612700 | 36.11° C | 60% | - | 0 mm | - | - | - |
| 1777612099 | 36.67° C | 59% | - | 0 mm | - | - | - |
| 1777611506 | 37.22° C | 58% | - | 0 mm | - | - | - |
| 1777610898 | 36.67° C | 56% | - | 0 mm | - | - | - |
| 1777610298 | 36.67° C | 56% | - | 0 mm | - | - | - |
| 1777609697 | 36.67° C | 55% | - | 0 mm | - | - | - |
* Rain latest hour (hover to see other rain measurements)
** Current wind speed in m/s (hover to see current wind gust speed)